Tiempo atmosférico en la estación meteorológica de Medina De Rioseco, Valladolid (731 m.)



Fecha
DESCASC
Temp. máxima en grados centígrados (hora)
DESCASC
Temp. mínima en grados centígrados (hora)
DESCASC
Temp. media en grados centígrados
DESCASC
Racha de viento máxima en m/sg (hora)
DESCASC
Velocidad máxima media en intervalos de 10 minutos(hora)
DESCASC
Precipitaciones diarias en mm
DESCASC
Precipitaciones de 00:00 a 06:00 en mm
DESCASC
Precipitaciones de 06:00 a 12:00 en mm
DESCASC
Precipitaciones de 12:00 a 18:00 en mm
DESCASC
Precipitaciones de 18:00 a 24:00 en mm
DESCASC
22-01-2020 9.7 (15:30) 2.5 (23:20) 6.1 14.72 (02:00) 8.89 (02:40) 0 0 0 0 0
21-01-2020 5 (13:20) 0.3 (00:10) 2.7 19.44 (23:00) 10.83 (14:00) 0 0 0 0 0
20-01-2020 3.1 (13:40) -0.9 (08:20) 1.1 19.17 (11:30) 10.56 (11:30) 0 0 0 0 0
19-01-2020 7 (13:30) -0.7 (-00:0) 3.2 18.89 (12:50) 11.67 (13:10) 0 0 0 0 0
18-01-2020 11.3 (15:50) 1.6 (00:00) 6.5 18.61 (16:00) 10.83 (16:00) 2.2 0 0.2 0.2 1.8
17-01-2020 9.7 (15:50) 3.4 (00:00) 6.5 12.5 (12:00) 7.78 (12:40) 0 0 0 0 0
16-01-2020 12.9 (14:50) 7.3 (00:00) 10.1 15 (15:00) 9.17 (15:40) 0 0 0 0 0
15-01-2020 11.7 (16:50) 6.6 (00:00) 9.1 11.94 (00:30) 7.22 (00:50) 1.4 0 1.2 0.2 0
14-01-2020 8.6 (15:40) -1.4 (-00:0) 3.6 11.67 (14:00) 6.94 (14:00) 0 0 0 0 0
13-01-2020 3.7 (17:00) -4.3 (-00:0) -0.3 7.22 (15:00) 4.72 (15:40) 0 0 0 0 0
12-01-2020 -0.2 (17:40) -6.3 (07:50) -3.3 3.61 (12:00) 2.22 (01:10) 0 0 0 0 0
11-01-2020 8.1 (16:00) -4.5 (-00:0) 1.8 4.72 (22:40) 3.33 (23:00) 0 0 0 0 0
10-01-2020 8.3 (15:10) -2.5 (-00:0) 2.9 5.28 (01:30) 3.33 (01:40) 0 0 0 0 0
09-01-2020 10.9 (15:20) -2.3 (-00:0) 4.3 11.39 (15:40) 7.5 (14:50) 0 0 0 0 0
08-01-2020 7.1 (17:00) -3.4 (-00:0) 1.8 3.06 (14:10) 1.94 (16:20) 0 0 0 0 0
07-01-2020 0.8 (16:20) -3.1 (-00:0) -1.1 3.89 (01:00) 1.94 (01:00) 0 0 0 0 0
06-01-2020 -0.5 (15:40) -3.4 (-00:0) -2 3.33 (05:00) 1.94 (22:20) 0 0 0 0 0
05-01-2020 4.3 (16:40) -2 (-00:0) 1.2 4.44 (20:00) 2.78 (20:10) 0 0 0 0 0
04-01-2020 7.3 (16:30) 0.2 (00:00) 3.8 5.56 (14:00) 2.78 (15:50) 0 0 0 0 0
03-01-2020 4.3 (16:30) -1.9 (-00:0) 1.2 5.28 (09:00) 2.5 (08:30) 0 0 0 0 0
02-01-2020 0.5 (17:10) -4.5 (-00:0) -2 2.78 (23:50) 1.39 (19:10) 0 0 0 0 0
01-01-2020 1.3 (16:30) -4.6 (-00:0) -1.6 3.89 (01:30) 1.94 (01:40) 0 0 0 0 0
31-12-2019 2.7 (17:00) -4.3 (-00:0) -0.8 3.33 (04:00) 1.94 (01:30) 0 0 0 0 0
30-12-2019 -- (--) -- (--) -- -- (--) -- (--) -- 0 0 0 --
29-12-2019 9.4 (16:40) -3.3 (-00:0) 3 2.78 (13:00) 2.22 (13:10) 0 0 0 0 0
28-12-2019 10.2 (16:20) -3 (-00:0) 3.6 4.17 (05:00) 2.5 (05:30) 0 0 0 0 0
27-12-2019 3.4 (16:40) -0.7 (-00:0) 1.4 4.72 (10:00) 2.5 (17:20) 0 0 0 0 0

Gráficas

Temp. máximas Temp. mínimas Temp. medias Precipitaciones Rachas de viento máximas Velocidades máximas media en intervalos de 10 minutos

Datos horarios

Fecha y hora oficial Temperatura (ºC) Velocidad del viento (km/h) Dirección del viento Racha (km/h) Dirección de racha Precipitación (mm) Presión (hPa) Tendencia (hPa) Humedad (%)
2020-01-25 23:00:00 3.9 2 Sur 5 Sudoeste 0 -- -- 95
2020-01-25 22:00:00 4.2 4 Sur 6 Sur 0 -- -- 94
2020-01-25 21:00:00 4.8 2 Sur 4 Noroeste 0 -- -- 94
2020-01-25 20:00:00 5.3 0 Calma 4 Este 0.2 -- -- 93
2020-01-25 19:00:00 5.9 2 Nordeste 8 Nordeste 0.4 -- -- 92
2020-01-25 18:00:00 6.3 3 Nordeste 10 Nordeste 0.4 -- -- 90
2020-01-25 17:00:00 6.5 7 Nordeste 15 Este 0.2 -- -- 90
2020-01-25 16:00:00 6.8 8 Nordeste 14 Nordeste 0 -- -- 88
2020-01-25 15:00:00 6.8 6 Nordeste 13 Nordeste 0 -- -- 90
2020-01-25 14:00:00 6.6 7 Nordeste 13 Nordeste 0 -- -- 91
2020-01-25 13:00:00 6.5 8 Nordeste 15 Nordeste 0 -- -- 93
2020-01-25 12:00:00 5.4 5 Nordeste 11 Nordeste 0.2 -- -- 96
2020-01-25 11:00:00 4.1 8 Nordeste 10 Nordeste 0.2 -- -- 97
2020-01-25 10:00:00 3 5 Nordeste 13 Nordeste 0.2 -- -- 97
2020-01-25 09:00:00 2.7 8 Nordeste 15 Nordeste 0 -- -- 97
2020-01-25 08:00:00 1.7 5 Nordeste 13 Nordeste 0 -- -- 97
2020-01-25 07:00:00 0.5 3 Este 13 Nordeste 0 -- -- 97
2020-01-25 06:00:00 0.3 8 Nordeste 12 Nordeste 0 -- -- 96
2020-01-25 05:00:00 0.9 5 Nordeste 8 Nordeste 0 -- -- 96
2020-01-25 04:00:00 1.9 6 Nordeste 9 Nordeste 0 -- -- 95
2020-01-25 03:00:00 2.1 3 Nordeste 6 Nordeste 0 -- -- 96
2020-01-25 02:00:00 2 0 Calma 5 Sudeste 0 -- -- 95
2020-01-25 01:00:00 1.9 0 Calma 4 Este 0 -- -- 95
2020-01-25 00:00:00 2.2 2 Este 9 Sur 0 -- -- 94
2020-01-24 23:00:00 2.9 2 Este 7 Este 0 -- -- 92
2020-01-24 22:00:00 4.4 3 Noroeste 5 Sudeste 0 -- -- 91
2020-01-24 21:00:00 5.2 0 Calma 9 Sudeste 0 -- -- 91
2020-01-24 20:00:00 5.3 3 Norte 6 Norte 0 -- -- 90
2020-01-24 19:00:00 5.9 0 Calma 8 Sudeste 0 -- -- 87
2020-01-24 18:00:00 6.5 4 Sudeste 9 Sur 0 -- -- 86
2020-01-24 17:00:00 7.1 5 Este 14 Este 0 -- -- 84
2020-01-24 16:00:00 7 8 Sudeste 14 Sudeste 0 -- -- 86
2020-01-24 15:00:00 7 8 Sudeste 14 Sudeste 0 -- -- 84
2020-01-24 14:00:00 7 8 Este 12 Este 0 -- -- 85
2020-01-24 13:00:00 6.7 5 Nordeste 12 Nordeste 0 -- -- 83
2020-01-24 12:00:00 6.9 6 Nordeste 10 Nordeste 0 -- -- 83
2020-01-24 11:00:00 5 0 Calma 10 Nordeste 0 -- -- 93
2020-01-24 10:00:00 2.8 5 Nordeste 9 Nordeste 0 -- -- 93
2020-01-24 09:00:00 2.1 4 Sudeste 8 Este 0 -- -- 92
2020-01-24 08:00:00 2.6 5 Nordeste 11 Nordeste 0 -- -- 93
2020-01-24 07:00:00 2.3 6 Nordeste 10 Nordeste 0 -- -- 92
2020-01-24 06:00:00 2.5 6 Nordeste 11 Nordeste 0 -- -- 92
2020-01-24 05:00:00 2.9 6 Nordeste 9 Este 0 -- -- 91
2020-01-24 04:00:00 2.9 5 Nordeste 10 Nordeste 0 -- -- 91
2020-01-24 03:00:00 3 7 Nordeste 10 Nordeste 0 -- -- 91
2020-01-24 02:00:00 2.9 3 Sudeste 8 Nordeste 0 -- -- 90
2020-01-24 01:00:00 2.3 3 Este 11 Nordeste 0 -- -- 90
2020-01-24 00:00:00 1.6 8 Nordeste 14 Nordeste 0 -- -- 91
2020-01-23 23:00:00 1.6 8 Nordeste 12 Nordeste 0 -- -- 89
2020-01-23 22:00:00 1.1 4 Nordeste 9 Nordeste 0 -- -- 89
2020-01-23 21:00:00 2.6 8 Nordeste 12 Nordeste 0 -- -- 87
2020-01-23 20:00:00 3 4 Sudeste 10 Sudeste 0 -- -- 84
2020-01-23 19:00:00 5.6 5 Nordeste 12 Nordeste 0 -- -- 79
2020-01-23 18:00:00 7.4 6 Nordeste 10 Nordeste 0 -- -- 74
2020-01-23 17:00:00 8.4 4 Nordeste 19 Este 0 -- -- 71
2020-01-23 16:00:00 8.7 11 Nordeste 21 Nordeste 0 -- -- 72
2020-01-23 15:00:00 7.7 13 Nordeste 24 Nordeste 0 -- -- 76
2020-01-23 14:00:00 7.2 15 Nordeste 24 Nordeste 0 -- -- 80
2020-01-23 13:00:00 5.8 9 Nordeste 19 Nordeste 0 -- -- 88
2020-01-23 12:00:00 2.8 13 Nordeste 21 Nordeste 0 -- -- 92
2020-01-23 11:00:00 1.8 12 Nordeste 21 Este 0 -- -- 94
2020-01-23 10:00:00 -0.2 6 Nordeste 16 Nordeste 0 -- -- 95
2020-01-23 09:00:00 -1 9 Nordeste 19 Nordeste 0 -- -- 94
2020-01-23 08:00:00 -1.2 14 Nordeste 19 Nordeste 0 -- -- 94
2020-01-23 07:00:00 -1.1 11 Nordeste 19 Este 0 -- -- 94
2020-01-23 06:00:00 -0.4 9 Este 16 Nordeste 0 -- -- 93
2020-01-23 05:00:00 -1.5 6 Sur 17 Nordeste 0 -- -- 91
2020-01-23 04:00:00 0.1 10 Nordeste 18 Este 0 -- -- 93
2020-01-23 03:00:00 0.5 8 Nordeste 18 Nordeste 0 -- -- 91
2020-01-23 02:00:00 0.7 5 Nordeste 13 Nordeste 0 -- -- 91
2020-01-23 01:00:00 2.5 5 Nordeste 25 Este 0 -- -- 86
2020-01-23 00:00:00 2.6 14 Este 29 Este 0 -- -- 89
2020-01-22 23:00:00 2.7 19 Este 32 Este 0 -- -- 89
2020-01-22 22:00:00 3.5 9 Este 24 Este 0 -- -- 84
2020-01-22 21:00:00 4.2 13 Sudeste 24 Sudeste 0 -- -- 84
2020-01-22 20:00:00 5.4 11 Este 22 Este 0 -- -- 79
2020-01-22 19:00:00 6.9 10 Este 23 Este 0 -- -- 73
2020-01-22 18:00:00 8.3 13 Este 24 Este 0 -- -- 68
2020-01-22 17:00:00 8.8 13 Este 24 Nordeste 0 -- -- 66
2020-01-22 16:00:00 9.6 13 Este 32 Este 0 -- -- 63
2020-01-22 15:00:00 9.4 18 Este 33 Este 0 -- -- 64
2020-01-22 14:00:00 8.8 19 Este 34 Este 0 -- -- 67
2020-01-22 13:00:00 7.9 17 Este 33 Este 0 -- -- 72
2020-01-22 12:00:00 6.7 21 Este 38 Este 0 -- -- 76
2020-01-22 11:00:00 5.7 22 Este 38 Este 0 -- -- 81
2020-01-22 10:00:00 4.5 21 Este 39 Este 0 -- -- 86
2020-01-22 09:00:00 3.8 21 Este 43 Este 0 -- -- 88
2020-01-22 08:00:00 3.7 22 Este 41 Este 0 -- -- 90
2020-01-22 07:00:00 3.5 22 Este 43 Este 0 -- -- 89
2020-01-22 06:00:00 3.9 24 Este 42 Este 0 -- -- 90
2020-01-22 05:00:00 4 23 Este 40 Este 0 -- -- 89
2020-01-22 04:00:00 4 22 Este 50 Este 0 -- -- 87
2020-01-22 03:00:00 3.7 32 Este 52 Nordeste 0 -- -- 87
2020-01-22 02:00:00 3.7 27 Este 53 Este 0 -- -- 86
2020-01-22 01:00:00 3.4 22 Este 47 Nordeste 0 -- -- 87
2020-01-22 00:00:00 3.2 32 Este 61 Este 0 -- -- 87
2020-01-21 23:00:00 2.4 27 Nordeste 70 Este 0 -- -- 88
2020-01-21 22:00:00 2.6 19 Nordeste 37 Nordeste 0 -- -- 88
2020-01-21 21:00:00 2.6 22 Este 44 Este 0 -- -- 88
2020-01-21 20:00:00 2.1 18 Este 42 Este 0 -- -- 88
2020-01-21 19:00:00 2.5 24 Este 50 Este 0 -- -- 87
2020-01-21 18:00:00 2.7 32 Este 59 Nordeste 0 -- -- 88
2020-01-21 17:00:00 3.4 33 Este 57 Este 0 -- -- 80
2020-01-21 16:00:00 4.3 29 Este 59 Nordeste 0 -- -- 76
2020-01-21 15:00:00 4.3 36 Este 65 Este 0 -- -- 75
2020-01-21 14:00:00 4.8 39 Este 66 Este 0 -- -- 71
2020-01-21 13:00:00 4.8 35 Este 63 Este 0 -- -- 68
2020-01-21 12:00:00 3.3 36 Este 64 Nordeste 0 -- -- 76
2020-01-21 11:00:00 3 35 Este 64 Este 0 -- -- 72
2020-01-21 10:00:00 2.3 33 Este 55 Este 0 -- -- 75
2020-01-21 09:00:00 1.2 32 Este 68 Este 0 -- -- 75
2020-01-21 08:00:00 1.1 30 Este 58 Este 0 -- -- 73
2020-01-21 07:00:00 0.9 29 Este 64 Este 0 -- -- 75
2020-01-21 06:00:00 0.8 31 Este 59 Este 0 -- -- 77
2020-01-21 05:00:00 0.8 33 Este 58 Este 0 -- -- 76
2020-01-21 04:00:00 1 30 Este 51 Este 0 -- -- 75
2020-01-21 03:00:00 0.7 24 Este 47 Este 0 -- -- 78
2020-01-21 02:00:00 0.7 30 Este 52 Este 0 -- -- 78
2020-01-21 01:00:00 0.5 25 Este 46 Este 0 -- -- 81
2020-01-21 00:00:00 0.4 24 Este 47 Este 0 -- -- 79
2020-01-20 23:00:00 0.5 26 Este 55 Este 0 -- -- 79
2020-01-20 22:00:00 0.4 33 Este 61 Este 0 -- -- 76
2020-01-20 21:00:00 0.8 31 Este 54 Este 0 -- -- 75
2020-01-20 20:00:00 0.9 30 Este 53 Este 0 -- -- 74
2020-01-20 19:00:00 1.1 23 Este 53 Este 0 -- -- 73
2020-01-20 18:00:00 1.6 28 Este 52 Nordeste 0 -- -- 69
2020-01-20 17:00:00 2.3 32 Este 60 Este 0 -- -- 65
2020-01-20 16:00:00 2.6 36 Este 62 Este 0 -- -- 62
2020-01-20 15:00:00 2.6 33 Este 59 Este 0 -- -- 62
2020-01-20 14:00:00 2.5 31 Este 58 Este 0 -- -- 62
2020-01-20 13:00:00 2.1 32 Este 68 Nordeste 0 -- -- 62
2020-01-20 12:00:00 2.5 35 Este 69 Este 0 -- -- 59
2020-01-20 11:00:00 1.7 36 Este 65 Este 0 -- -- 64
2020-01-20 10:00:00 0.8 29 Este 58 Este 0 -- -- 70
2020-01-20 09:00:00 -0.4 26 Nordeste 49 Este 0 -- -- 76
2020-01-20 08:00:00 -0.8 19 Este 38 Este 0 -- -- 80
2020-01-20 07:00:00 -0.6 19 Este 38 Nordeste 0 -- -- 76
2020-01-20 06:00:00 -0.1 22 Este 43 Este 0 -- -- 75
2020-01-20 05:00:00 0 21 Este 42 Este 0 -- -- 75
2020-01-20 04:00:00 0 18 Este 36 Este 0 -- -- 76
2020-01-20 03:00:00 0.2 19 Nordeste 42 Nordeste 0 -- -- 76
2020-01-20 02:00:00 0.1 17 Este 45 Este 0 -- -- 76
2020-01-20 01:00:00 0.7 22 Este 42 Este 0 -- -- 73
2020-01-20 00:00:00 0.6 19 Este 42 Este 0 -- -- 74
2020-01-19 23:00:00 1.3 21 Este 54 Este 0 -- -- 69
2020-01-19 22:00:00 1.8 36 Nordeste 61 Nordeste 0 -- -- 66
2020-01-19 21:00:00 1.6 26 Nordeste 46 Este 0 -- -- 65
2020-01-19 20:00:00 1.6 18 Este 41 Nordeste 0 -- -- 65
2020-01-19 19:00:00 2.1 24 Este 57 Este 0 -- -- 61
2020-01-19 18:00:00 3.6 33 Este 59 Nordeste 0 -- -- 52
2020-01-19 17:00:00 5.3 32 Nordeste 62 Nordeste 0 -- -- 48
2020-01-19 16:00:00 6.3 34 Nordeste 68 Nordeste 0 -- -- 54
2020-01-19 15:00:00 6.8 40 Nordeste 64 Nordeste 0 -- -- 50
2020-01-19 14:00:00 6.9 36 Nordeste 64 Nordeste 0 -- -- 55
2020-01-19 13:00:00 6.7 39 Nordeste 68 Nordeste 0 -- -- 57
2020-01-19 12:00:00 6.2 37 Nordeste 59 Este 0 -- -- 59
2020-01-19 11:00:00 5.5 33 Nordeste 55 Nordeste 0 -- -- 67
2020-01-19 10:00:00 3.8 23 Nordeste 36 Nordeste 0 -- -- 89
2020-01-19 09:00:00 2.3 10 Nordeste 28 Nordeste 0 -- -- 94
2020-01-19 08:00:00 0.7 6 Norte 10 Nordeste 0 -- -- 96
2020-01-19 07:00:00 0.5 3 Nordeste 7 Nordeste 0 -- -- 95
2020-01-19 06:00:00 0.6 3 Nordeste 7 Este 0 -- -- 95
2020-01-19 05:00:00 0.3 5 Este 9 Nordeste 0 -- -- 95
2020-01-19 04:00:00 -0.7 0 Calma 6 Oeste 0 -- -- 94
2020-01-19 03:00:00 0.3 5 Oeste 8 Oeste 0 -- -- 93
2020-01-19 02:00:00 1.4 3 Este 7 Sudoeste 0 -- -- 93
2020-01-19 01:00:00 2.1 5 Oeste 13 Oeste 0 -- -- 92
2020-01-19 00:00:00 2.4 3 Sudoeste 9 Sudoeste 0 -- -- 93
2020-01-18 23:00:00 1.8 5 Sur 8 Sur 0 -- -- 93
2020-01-18 22:00:00 2.1 3 Oeste 6 Oeste 0 -- -- 91
2020-01-18 21:00:00 3.9 4 Noroeste 14 Noroeste 0 -- -- 88
2020-01-18 20:00:00 5.7 9 Noroeste 27 Norte 0 -- -- 85
2020-01-18 19:00:00 7.2 13 Noroeste 60 Noroeste 1.8 -- -- 90
2020-01-18 18:00:00 10 27 Oeste 42 Noroeste 0 -- -- 83
2020-01-18 17:00:00 10.7 21 Oeste 58 Oeste 0 -- -- 86
2020-01-18 16:00:00 11.3 39 Oeste 67 Oeste 0 -- -- 83
2020-01-18 15:00:00 10.4 29 Oeste 50 Oeste 0.2 -- -- 91
2020-01-18 14:00:00 8.9 26 Sudoeste 43 Sudoeste 0 -- -- 92
2020-01-18 13:00:00 8.3 17 Sudoeste 34 Sudoeste 0 -- -- 91
2020-01-18 12:00:00 7.5 21 Sur 35 Sudeste 0 -- -- 92
2020-01-18 11:00:00 6.5 10 Sudoeste 17 Sur 0 -- -- 91
2020-01-18 10:00:00 5.9 10 Sur 19 Sur 0 -- -- 91
2020-01-18 09:00:00 4.9 6 Sur 15 Sur 0.2 -- -- 90
2020-01-18 08:00:00 4.8 12 Sur 20 Sur 0 -- -- 87
2020-01-18 07:00:00 4.9 9 Sur 17 Sur 0 -- -- 85
2020-01-18 06:00:00 4.5 5 Sur 15 Sudeste 0 -- -- 85
2020-01-18 05:00:00 4 4 Sudoeste 10 Sudoeste 0 -- -- 88
2020-01-18 04:00:00 3.4 0 Calma 5 Oeste 0 -- -- 88
2020-01-18 03:00:00 3.6 3 Sur 10 Este 0 -- -- 88
2020-01-18 02:00:00 3.6 3 Sur 8 Sur 0 -- -- 87
2020-01-18 01:00:00 3.2 4 Sudeste 12 Sur 0 -- -- 88
2020-01-18 00:00:00 3.4 2 Este 4 Sudeste 0 -- -- 87
2020-01-17 23:00:00 3.8 0 Calma 6 Oeste 0 -- -- 86
2020-01-17 22:00:00 3.8 3 Sudoeste 5 Sudoeste 0 -- -- 85
2020-01-17 21:00:00 4 0 Calma 8 Oeste 0 -- -- 83
2020-01-17 20:00:00 4.1 6 Oeste 9 Sudoeste 0 -- -- 80
2020-01-17 19:00:00 5.3 6 Sudoeste 12 Oeste 0 -- -- 75
2020-01-17 18:00:00 7.1 8 Oeste 20 Oeste 0 -- -- 65
2020-01-17 17:00:00 8.4 13 Noroeste 28 Oeste 0 -- -- 58
2020-01-17 16:00:00 9.4 18 Oeste 31 Oeste 0 -- -- 55
2020-01-17 15:00:00 8.6 21 Oeste 32 Oeste 0 -- -- 61
2020-01-17 14:00:00 8.9 22 Oeste 32 Noroeste 0 -- -- 64
2020-01-17 13:00:00 8.9 26 Oeste 37 Oeste 0 -- -- 68
2020-01-17 12:00:00 8.1 26 Oeste 45 Oeste 0 -- -- 72
2020-01-17 11:00:00 7.2 23 Oeste 33 Oeste 0 -- -- 81
2020-01-17 10:00:00 5.9 17 Oeste 30 Oeste 0 -- -- 92
2020-01-17 09:00:00 5.4 15 Oeste 29 Oeste 0 -- -- 92
2020-01-17 08:00:00 6.4 18 Oeste 31 Oeste 0 -- -- 90
2020-01-17 07:00:00 6.7 18 Oeste 37 Oeste 0 -- -- 90
2020-01-17 06:00:00 6.7 22 Oeste 40 Sudoeste 0 -- -- 89
2020-01-17 05:00:00 6.8 22 Oeste 39 Sudoeste 0 -- -- 88
2020-01-17 04:00:00 7.1 22 Sudoeste 33 Oeste 0 -- -- 86
2020-01-17 03:00:00 6.6 17 Oeste 37 Oeste 0 -- -- 89
2020-01-17 02:00:00 6.1 13 Oeste 26 Sudoeste 0 -- -- 89
2020-01-17 01:00:00 6.3 17 Sudoeste 27 Sudoeste 0 -- -- 89
2020-01-17 00:00:00 7.5 17 Sudoeste 35 Oeste 0 -- -- 87
2020-01-16 23:00:00 7.9 23 Sudoeste 41 Oeste 0 -- -- 86
2020-01-16 22:00:00 8.2 21 Sudoeste 44 Sudoeste 0 -- -- 81
2020-01-16 21:00:00 8.6 17 Sudoeste 37 Sudoeste 0 -- -- 76
2020-01-16 20:00:00 9.4 25 Sudoeste 44 Sudoeste 0 -- -- 71
2020-01-16 19:00:00 9.3 22 Sudoeste 39 Sudoeste 0 -- -- 71
2020-01-16 18:00:00 9.6 15 Sudoeste 39 Sudoeste 0 -- -- 69
2020-01-16 17:00:00 10.5 23 Sudoeste 45 Sudoeste 0 -- -- 62
2020-01-16 16:00:00 11.8 30 Sudoeste 51 Sudoeste 0 -- -- 57
2020-01-16 15:00:00 12.7 32 Sudoeste 54 Sudoeste 0 -- -- 57
2020-01-16 14:00:00 12.5 31 Sudoeste 46 Sudoeste 0 -- -- 63
2020-01-16 13:00:00 11.9 26 Sudoeste 44 Sudoeste 0 -- -- 71
2020-01-16 12:00:00 11.3 25 Sudoeste 44 Sudoeste 0 -- -- 79
2020-01-16 11:00:00 10.8 21 Sudoeste 39 Sur 0 -- -- 83
2020-01-16 10:00:00 8.8 11 Sudoeste 29 Sudoeste 0 -- -- 89
2020-01-16 09:00:00 8.3 14 Sudoeste 28 Sudoeste 0 -- -- 88
2020-01-16 08:00:00 7.7 16 Sur 26 Sur 0 -- -- 91
2020-01-16 07:00:00 8 13 Sudoeste 20 Sudoeste 0 -- -- 89
2020-01-16 06:00:00 8.6 11 Sudoeste 28 Sudoeste 0 -- -- 87
2020-01-16 05:00:00 8.9 15 Sudoeste 24 Sur 0 -- -- 87
2020-01-16 04:00:00 8.6 11 Oeste 25 Sudoeste 0 -- -- 87
2020-01-16 03:00:00 9 15 Sudoeste 32 Sudoeste 0 -- -- 87
2020-01-16 02:00:00 9.5 18 Sudoeste 32 Sur 0 -- -- 86
2020-01-16 01:00:00 9.1 9 Sudoeste 24 Sur 0 -- -- 87
2020-01-16 00:00:00 9.3 12 Sur 27 Sur 0 -- -- 88
2020-01-15 23:00:00 8.9 12 Sudoeste 23 Sudoeste 0 -- -- 89
2020-01-15 22:00:00 8.8 12 Sudoeste 27 Sur 0 -- -- 89
2020-01-15 21:00:00 9.1 11 Sudoeste 24 Sur 0 -- -- 88
2020-01-15 20:00:00 9.2 11 Sur 19 Sur 0 -- -- 87
2020-01-15 19:00:00 9.2 10 Sudoeste 16 Sudoeste 0 -- -- 88
2020-01-15 18:00:00 9.8 6 Sudoeste 26 Sudoeste 0 -- -- 82
2020-01-15 17:00:00 11.5 19 Oeste 33 Oeste 0 -- -- 77
2020-01-15 16:00:00 10.7 14 Sudoeste 35 Sudoeste 0.2 -- -- 81
2020-01-15 15:00:00 10.4 18 Sudoeste 35 Sudoeste 0 -- -- 79
2020-01-15 14:00:00 10.3 19 Sudoeste 31 Sudoeste 0 -- -- 80
2020-01-15 13:00:00 8.5 18 Sudoeste 36 Sudoeste 0 -- -- 87
2020-01-15 12:00:00 7.3 17 Sudoeste 30 Sudoeste 0.2 -- -- 92
2020-01-15 11:00:00 7.1 17 Oeste 36 Sudoeste 0.8 -- -- 91
2020-01-15 10:00:00 7.2 25 Sudoeste 39 Sudoeste 0.2 -- -- 87
2020-01-15 09:00:00 6.8 19 Sudoeste 36 Sudoeste 0 -- -- 85
2020-01-15 08:00:00 7 16 Sudoeste 32 Sudoeste 0 -- -- 86
2020-01-15 07:00:00 7 18 Sudoeste 35 Sudoeste 0 -- -- 84
2020-01-15 06:00:00 6.9 19 Sudoeste 37 Sudoeste 0 -- -- 83
2020-01-15 05:00:00 6.9 21 Sudoeste 38 Sudoeste 0 -- -- 85
2020-01-15 04:00:00 6.8 15 Sudoeste 39 Sudoeste 0 -- -- 85
2020-01-15 03:00:00 7.1 21 Sudoeste 40 Sudoeste 0 -- -- 86
2020-01-15 02:00:00 7.1 23 Sudoeste 40 Sudoeste 0 -- -- 87
2020-01-15 01:00:00 7.1 22 Sudoeste 43 Sudoeste 0 -- -- 87
2020-01-15 00:00:00 6.7 19 Sudoeste 38 Sudoeste 0 -- -- 89
2020-01-14 23:00:00 6.5 17 Sudoeste 33 Sudoeste 0 -- -- 87
2020-01-14 22:00:00 6.2 18 Sudoeste 28 Sudoeste 0 -- -- 87
2020-01-14 21:00:00 6.1 17 Sudoeste 32 Sudoeste 0 -- -- 84
2020-01-14 20:00:00 6 13 Sudoeste 30 Sudoeste 0 -- -- 83
2020-01-14 19:00:00 7.2 20 Sudoeste 30 Sudoeste 0 -- -- 79
2020-01-14 18:00:00 7.7 14 Sudoeste 28 Sudoeste 0 -- -- 78
2020-01-14 17:00:00 8.3 18 Sudoeste 34 Sudoeste 0 -- -- 76
2020-01-14 16:00:00 8.6 18 Sudoeste 33 Sudoeste 0 -- -- 73
2020-01-14 15:00:00 8.2 19 Sudoeste 39 Sudoeste 0 -- -- 74
2020-01-14 14:00:00 8 25 Sudoeste 42 Sudoeste 0 -- -- 75
2020-01-14 13:00:00 7.3 19 Sudoeste 27 Sudoeste 0 -- -- 79
2020-01-14 12:00:00 5.2 12 Sudoeste 27 Sur 0 -- -- 82
2020-01-14 11:00:00 4.5 17 Sudoeste 31 Sur 0 -- -- 82
2020-01-14 10:00:00 3.6 18 Sudoeste 37 Sur 0 -- -- 84
2020-01-14 09:00:00 2.3 17 Sur 34 Sudoeste 0 -- -- 87
2020-01-14 08:00:00 3 16 Sudoeste 30 Sudoeste 0 -- -- 86
2020-01-14 07:00:00 3.4 12 Sudoeste 29 Sur 0 -- -- 87
2020-01-14 06:00:00 3.3 15 Sudoeste 26 Sudoeste 0 -- -- 87
2020-01-14 05:00:00 3.6 9 Sudoeste 22 Sudoeste 0 -- -- 89
2020-01-14 04:00:00 3.6 9 Sudoeste 26 Sudoeste 0 -- -- 90
2020-01-14 03:00:00 3.5 14 Sudoeste 23 Sudoeste 0 -- -- 93
2020-01-14 02:00:00 3 16 Sudoeste 30 Sudoeste 0 -- -- 96
2020-01-14 01:00:00 2 14 Sudoeste 24 Sudoeste 0 -- -- 97
2020-01-14 00:00:00 -1.4 3 Sudoeste 4 Sudoeste 0 -- -- 97
2020-01-13 23:00:00 -2.6 3 Sur 6 Este 0 -- -- 96
2020-01-13 22:00:00 -2.6 2 Este 12 Nordeste 0 -- -- 96
2020-01-13 21:00:00 -1.8 4 Este 10 Sur 0 -- -- 95
2020-01-13 20:00:00 -1.3 3 Nordeste 12 Sur 0 -- -- 95
2020-01-13 19:00:00 -0.1 0 Calma 12 Sur 0 -- -- 93
2020-01-13 18:00:00 2.4 5 Sur 13 Oeste 0 -- -- 92
2020-01-13 17:00:00 3.7 8 Sudoeste 17 Oeste 0 -- -- 97
2020-01-13 16:00:00 2.5 13 Oeste 26 Oeste 0 -- -- 99
2020-01-13 15:00:00 1.1 15 Oeste 26 Sudoeste 0 -- -- 99
2020-01-13 14:00:00 -0.7 6 Oeste 13 Noroeste 0 -- -- 99
2020-01-13 13:00:00 -2.1 5 Sudoeste 12 Sudoeste 0 -- -- 98
2020-01-13 12:00:00 -2.5 8 Oeste 13 Noroeste 0 -- -- 98
2020-01-13 11:00:00 -3.2 5 Oeste 10 Sudoeste 0 -- -- 97
2020-01-13 10:00:00 -3.6 3 Sudoeste 9 Sur 0 -- -- 97
2020-01-13 09:00:00 -4.1 5 Sur 10 Oeste 0 -- -- 97
2020-01-13 08:00:00 -4.1 6 Oeste 12 Sur 0 -- -- 97
2020-01-13 07:00:00 -3.4 5 Sur 8 Sur 0 -- -- 97
2020-01-13 06:00:00 -3.5 2 Sudoeste 10 Sudoeste 0 -- -- 97
2020-01-13 05:00:00 -3.2 5 Sudoeste 11 Sudoeste 0 -- -- 97
2020-01-13 04:00:00 -3.2 5 Sudeste 12 Sudeste 0 -- -- 98
2020-01-13 03:00:00 -2.9 3 Este 8 Este 0 -- -- 98
2020-01-13 02:00:00 -2.3 3 Norte 6 Este 0 -- -- 98
2020-01-13 01:00:00 -2.2 3 Este 8 Nordeste 0 -- -- 98
2020-01-13 00:00:00 -1.7 2 Noroeste 6 Nordeste 0 -- -- 98
2020-01-12 23:00:00 -1.7 2 Sudeste 8 Nordeste 0 -- -- 98
2020-01-12 22:00:00 -1.6 3 Sudoeste 6 Este 0 -- -- 98
2020-01-12 21:00:00 -1.6 2 Sudeste 6 Este 0 -- -- 98
2020-01-12 20:00:00 -1.3 3 Este 8 Norte 0 -- -- 98
2020-01-12 19:00:00 -0.8 4 Noroeste 6 Noroeste 0 -- -- 98
2020-01-12 18:00:00 -0.4 4 Este 9 Este 0 -- -- 97
2020-01-12 17:00:00 -0.3 5 Nordeste 13 Nordeste 0 -- -- 97
2020-01-12 16:00:00 -0.3 4 Nordeste 9 Norte 0 -- -- 97
2020-01-12 15:00:00 -0.7 3 Norte 7 Norte 0 -- -- 97
2020-01-12 14:00:00 -1.5 2 Nordeste 8 Norte 0 -- -- 97
2020-01-12 13:00:00 -2.2 4 Nordeste 10 Este 0 -- -- 97
2020-01-12 12:00:00 -3.2 6 Este 13 Este 0 -- -- 97
2020-01-12 11:00:00 -4.2 5 Este 9 Este 0 -- -- 96
2020-01-12 10:00:00 -4.9 3 Este 6 Este 0 -- -- 96
2020-01-12 09:00:00 -5.4 4 Norte 6 Norte 0 -- -- 96
2020-01-12 08:00:00 -6.3 0 Calma 4 Nordeste 0 -- -- 95
2020-01-12 07:00:00 -5.9 2 Este 7 Sudeste 0 -- -- 95
2020-01-12 06:00:00 -5.6 3 Este 5 Nordeste 0 -- -- 95
2020-01-12 05:00:00 -5.6 4 Este 5 Este 0 -- -- 96
2020-01-12 04:00:00 -4.8 3 Este 5 Este 0 -- -- 95
2020-01-12 03:00:00 -4.1 4 Este 10 Sudeste 0 -- -- 95
2020-01-12 02:00:00 -3.9 5 Sudeste 13 Sur 0 -- -- 95
2020-01-12 01:00:00 -3.7 7 Sur 12 Sur 0 -- -- 95
2020-01-12 00:00:00 -3.8 8 Sur 15 Sur 0 -- -- 94
2020-01-11 23:00:00 -3.4 12 Sur 17 Sudeste 0 -- -- 93
2020-01-11 22:00:00 -2.5 8 Sur 14 Sur 0 -- -- 92
2020-01-11 21:00:00 -1.7 10 Sur 15 Sur 0 -- -- 91
2020-01-11 20:00:00 -0.6 8 Sur 11 Sur 0 -- -- 87
2020-01-11 19:00:00 2.4 2 Oeste 11 Sur 0 -- -- 82
2020-01-11 18:00:00 6.2 5 Sudoeste 10 Sudoeste 0 -- -- 75
2020-01-11 17:00:00 8 5 Oeste 8 Oeste 0 -- -- 68
2020-01-11 16:00:00 8.1 4 Oeste 10 Sur 0 -- -- 70
2020-01-11 15:00:00 7.4 3 Sudoeste 8 Oeste 0 -- -- 73
2020-01-11 14:00:00 6.6 0 Calma 8 Nordeste 0 -- -- 77
2020-01-11 13:00:00 4.7 4 Nordeste 10 Nordeste 0 -- -- 86
2020-01-11 12:00:00 3 6 Nordeste 9 Nordeste 0 -- -- 95
2020-01-11 11:00:00 0.2 2 Este 5 Este 0 -- -- 97
2020-01-11 10:00:00 -2.3 2 Sudeste 6 Sudeste 0 -- -- 97
2020-01-11 09:00:00 -4.3 3 Este 5 Nordeste 0 -- -- 96
2020-01-11 08:00:00 -3.8 0 Calma 7 Sudeste 0 -- -- 95
2020-01-11 07:00:00 -3.3 3 Sudeste 5 Este 0 -- -- 95
2020-01-11 06:00:00 -3.2 0 Calma 4 Oeste 0 -- -- 95
2020-01-11 05:00:00 -3.9 2 Sur 8 Oeste 0 -- -- 94
2020-01-11 04:00:00 -2.3 3 Nordeste 8 Este 0 -- -- 94
2020-01-11 03:00:00 -2.1 4 Sudeste 12 Sur 0 -- -- 94
2020-01-11 02:00:00 -1.4 0 Calma 8 Este 0 -- -- 92
2020-01-11 01:00:00 -0.7 5 Sudeste 8 Sur 0 -- -- 91
2020-01-11 00:00:00 0.3 4 Noroeste 12 Nordeste 0 -- -- 89
2020-01-10 23:00:00 1.1 6 Nordeste 10 Sudoeste 0 -- -- 91
2020-01-10 22:00:00 0.8 3 Norte 10 Nordeste 0 -- -- 86
2020-01-10 21:00:00 1.4 3 Nordeste 9 Sudeste 0 -- -- 85
2020-01-10 20:00:00 2 7 Sur 14 Sur 0 -- -- 84
2020-01-10 19:00:00 2.8 4 Este 6 Este 0 -- -- 78
2020-01-10 18:00:00 6.9 3 Sudeste 9 Nordeste 0 -- -- 68
2020-01-10 17:00:00 7.9 4 Nordeste 12 Este 0 -- -- 63
2020-01-10 16:00:00 8.3 4 Nordeste 11 Nordeste 0 -- -- 60
2020-01-10 15:00:00 8.2 5 Nordeste 14 Nordeste 0 -- -- 63
2020-01-10 14:00:00 7.8 5 Este 12 Este 0 -- -- 65
2020-01-10 13:00:00 6.9 4 Norte 11 Este 0 -- -- 69
2020-01-10 12:00:00 5.5 5 Nordeste 9 Norte 0 -- -- 78
2020-01-10 11:00:00 3.1 4 Este 8 Sudeste 0 -- -- 90
2020-01-10 10:00:00 -0.1 0 Calma 7 Este 0 -- -- 95
2020-01-10 09:00:00 -0.8 6 Nordeste 15 Sudeste 0 -- -- 94
2020-01-10 08:00:00 -1.6 3 Sudeste 12 Nordeste 0 -- -- 93
2020-01-10 07:00:00 -1 5 Nordeste 16 Sudoeste 0 -- -- 94
2020-01-10 06:00:00 -0.8 4 Sudoeste 9 Noroeste 0 -- -- 93
2020-01-10 05:00:00 -1.6 5 Noroeste 9 Noroeste 0 -- -- 92
2020-01-10 04:00:00 -1.4 3 Sudoeste 7 Sur 0 -- -- 90
2020-01-10 03:00:00 0.2 0 Calma 12 Sur 0 -- -- 89
2020-01-10 02:00:00 0.6 9 Sur 19 Noroeste 0 -- -- 88
2020-01-10 01:00:00 1.1 5 Oeste 16 Oeste 0 -- -- 88
2020-01-10 00:00:00 2.1 5 Oeste 16 Sur 0 -- -- 92
2020-01-09 23:00:00 2.5 7 Oeste 15 Noroeste 0 -- -- 94
2020-01-09 22:00:00 3.4 9 Oeste 14 Oeste 0 -- -- 94
2020-01-09 21:00:00 4.4 3 Sudoeste 15 Noroeste 0 -- -- 94
2020-01-09 20:00:00 6 5 Oeste 20 Oeste 0 -- -- 94
2020-01-09 19:00:00 7.6 12 Oeste 27 Oeste 0 -- -- 92
2020-01-09 18:00:00 9.1 19 Oeste 33 Oeste 0 -- -- 91
2020-01-09 17:00:00 9.7 17 Oeste 37 Oeste 0 -- -- 90
2020-01-09 16:00:00 10.1 20 Oeste 41 Oeste 0 -- -- 89
2020-01-09 15:00:00 10 23 Sudoeste 36 Sudoeste 0 -- -- 94
2020-01-09 14:00:00 7.4 21 Oeste 30 Oeste 0 -- -- 98
2020-01-09 13:00:00 5.2 15 Oeste 28 Oeste 0 -- -- 98
2020-01-09 12:00:00 4.4 13 Sudoeste 19 Oeste 0 -- -- 98
2020-01-09 11:00:00 1.8 5 Sudoeste 9 Sudoeste 0 -- -- 97
2020-01-09 10:00:00 -0.7 2 Norte 4 Sudoeste 0 -- -- 97
2020-01-09 09:00:00 -1.9 0 Calma 4 Sur 0 -- -- 96
2020-01-09 08:00:00 -2.1 4 Oeste 6 Oeste 0 -- -- 96
2020-01-09 07:00:00 -1.6 3 Sudoeste 10 Sudeste 0 -- -- 96
2020-01-09 06:00:00 -2.2 6 Oeste 9 Noroeste 0 -- -- 97
2020-01-09 05:00:00 -2 2 Oeste 9 Sur 0 -- -- 96
2020-01-09 04:00:00 -1.7 6 Sur 11 Sur 0 -- -- 96
2020-01-09 03:00:00 -2 0 Calma 3 Nordeste 0 -- -- 97
2020-01-09 02:00:00 -1.7 0 Calma 4 Noroeste 0 -- -- 96
2020-01-09 01:00:00 -1.3 0 Calma 4 Sudeste 0 -- -- 95
2020-01-09 00:00:00 -1 0 Calma 3 Oeste 0 -- -- 95
2020-01-08 23:00:00 -0.8 0 Calma 6 Sudoeste 0 -- -- 95
2020-01-08 22:00:00 -0.4 0 Calma 4 Oeste 0 -- -- 94
2020-01-08 21:00:00 0.3 3 Oeste 4 Oeste 0 -- -- 93
2020-01-08 20:00:00 1.5 0 Calma 4 Sur 0 -- -- 92
2020-01-08 19:00:00 3.1 3 Sudoeste 5 Oeste 0 -- -- 88
2020-01-08 18:00:00 6.1 5 Oeste 9 Oeste 0 -- -- 84
2020-01-08 17:00:00 7.1 5 Noroeste 10 Oeste 0 -- -- 84
2020-01-08 16:00:00 6.5 7 Oeste 10 Oeste 0 -- -- 92
2020-01-08 15:00:00 5.3 7 Oeste 11 Oeste 0 -- -- 98
2020-01-08 14:00:00 3.2 6 Oeste 10 Oeste 0 -- -- 99
2020-01-08 13:00:00 0.4 3 Noroeste 9 Noroeste 0 -- -- 100
2020-01-08 12:00:00 -1.4 4 Sudoeste 8 Sudoeste 0 -- -- 99
2020-01-08 11:00:00 -2.4 2 Noroeste 5 Noroeste 0 -- -- 99
2020-01-08 10:00:00 -3 2 Norte 6 Norte 0 -- -- 98
2020-01-08 09:00:00 -3.3 0 Calma 7 Nordeste 0 -- -- 98
2020-01-08 08:00:00 -3.2 4 Nordeste 8 Nordeste 0 -- -- 98
2020-01-08 07:00:00 -2.8 4 Nordeste 8 Nordeste 0 -- -- 98
2020-01-08 06:00:00 -2.7 4 Nordeste 8 Nordeste 0 -- -- 99
2020-01-08 05:00:00 -3 5 Nordeste 8 Nordeste 0 -- -- 98
2020-01-08 04:00:00 -3.2 2 Sur 5 Oeste 0 -- -- 99
2020-01-08 03:00:00 -3.1 0 Calma 5 Oeste 0 -- -- 98
2020-01-08 02:00:00 -2.8 3 Sudeste 6 Sur 0 -- -- 98
2020-01-08 01:00:00 -2.1 0 Calma 6 Este 0 -- -- 98
2020-01-08 00:00:00 -1.6 3 Sudeste 6 Sur 0 -- -- 98
2020-01-07 23:00:00 -0.9 0 Calma 6 Sudoeste 0 -- -- 99
2020-01-07 22:00:00 -0.8 3 Oeste 6 Nordeste 0 -- -- 98
2020-01-07 21:00:00 -0.5 3 Este 7 Noroeste 0 -- -- 98
2020-01-07 20:00:00 0 3 Oeste 8 Sudoeste 0 -- -- 98
2020-01-07 19:00:00 0.1 4 Sudeste 9 Nordeste 0 -- -- 98
2020-01-07 18:00:00 0.3 4 Nordeste 8 Nordeste 0 -- -- 98
2020-01-07 17:00:00 0.4 4 Noroeste 10 Sudoeste 0 -- -- 98
2020-01-07 16:00:00 0.5 3 Noroeste 9 Oeste 0 -- -- 99
2020-01-07 15:00:00 0.3 6 Noroeste 10 Oeste 0 -- -- 99
2020-01-07 14:00:00 -0.8 3 Sudeste 10 Sur 0 -- -- 99
2020-01-07 13:00:00 -1.8 5 Este 8 Este 0 -- -- 99
2020-01-07 12:00:00 -2.2 4 Noroeste 7 Oeste 0 -- -- 99
2020-01-07 11:00:00 -3 3 Norte 9 Noroeste 0 -- -- 98
2020-01-07 10:00:00 -3 3 Sudoeste 10 Sudeste 0 -- -- 98
2020-01-07 09:00:00 -2.6 4 Sudeste 7 Sudeste 0 -- -- 98
2020-01-07 08:00:00 -2.5 4 Nordeste 9 Nordeste 0 -- -- 99
2020-01-07 07:00:00 -2.2 3 Nordeste 7 Nordeste 0 -- -- 98
2020-01-07 06:00:00 -2.1 4 Norte 8 Norte 0 -- -- 99
2020-01-07 05:00:00 -2.1 4 Nordeste 10 Nordeste 0 -- -- 98
2020-01-07 04:00:00 -2.1 4 Nordeste 7 Nordeste 0 -- -- 99
2020-01-07 03:00:00 -2.2 3 Sudeste 8 Sudeste 0 -- -- 98
2020-01-07 02:00:00 -2.3 5 Este 10 Nordeste 0 -- -- 98
2020-01-07 01:00:00 -2.2 7 Este 14 Este 0 -- -- 98
2020-01-07 00:00:00 -1.9 2 Sudeste 8 Este 0 -- -- 98
2020-01-06 23:00:00 -1.9 4 Sudeste 12 Este 0 -- -- 98
2020-01-06 22:00:00 -1.6 5 Sudeste 10 Sudeste 0 -- -- 98
2020-01-06 21:00:00 -1.5 3 Sudoeste 9 Sudeste 0 -- -- 98
2020-01-06 20:00:00 -1.3 6 Este 10 Nordeste 0 -- -- 98
2020-01-06 19:00:00 -1 4 Nordeste 10 Nordeste 0 -- -- 98
2020-01-06 18:00:00 -0.5 3 Nordeste 6 Norte 0 -- -- 98
2020-01-06 17:00:00 -0.6 3 Sur 8 Sudoeste 0 -- -- 98
2020-01-06 16:00:00 -0.6 3 Noroeste 9 Noroeste 0 -- -- 98
2020-01-06 15:00:00 -0.8 4 Sudeste 9 Sudeste 0 -- -- 98
2020-01-06 14:00:00 -1.1 4 Sur 7 Sur 0 -- -- 99
2020-01-06 13:00:00 -1.6 3 Noroeste 11 Sur 0 -- -- 98
2020-01-06 12:00:00 -2.2 4 Sudeste 10 Sudeste 0 -- -- 98
2020-01-06 11:00:00 -2.8 5 Sur 9 Sur 0 -- -- 98
2020-01-06 10:00:00 -2.9 5 Oeste 10 Oeste 0 -- -- 98